Ann Marie Rose — WDA320 — position and weather

sailwx.info

Track history (hours):
 
Tides and Currents Weather Stations Pressure Air Temp Water Temp Dewpoint Dewpoint Depression Visibility Wind Speed Wind Dir Waves Ship Positions

Ann Marie Rose

Last reported at 2017-Apr-08 14:00 UTC. Time now 2017-Sep-22 02:59 UTC.
Position N 32°02' W 080°55'.
Warning: this ship's position is months out of date.

Length 14 m.

Type: Pleasure craft. MMSI: 338095872.

Date/timePositionNaut miles runAvg speedWind from/ knotsBaromVisibWave heightAir tempDewpointWater temp
2017-Apr-08 14:00N 32°02' W 080°55'4 7.9
2017-Apr-08 13:30N 32°04' W 080°59'2 4.8
2017-Apr-08 13:00N 32°03' W 081°02'2 2.4
2017-Apr-08 12:20N 32°02' W 081°03'0 0.0
2017-Apr-08 11:50N 32°02' W 081°03'0 0.0
2017-Apr-08 11:20N 32°02' W 081°03'0 0.0
2017-Apr-08 10:56N 32°02' W 081°03'0 0.0
2017-Apr-08 10:26N 32°02' W 081°03'0 0.0
2017-Apr-08 09:56N 32°02' W 081°03'0 0.0
2017-Apr-08 09:26N 32°02' W 081°03'0 0.0
2017-Apr-08 08:56N 32°02' W 081°03'0 0.0
2017-Apr-08 08:26N 32°02' W 081°03'0 0.0
2017-Apr-08 07:56N 32°02' W 081°03'0 0.0
2017-Apr-08 07:26N 32°02' W 081°03'0 0.0
2017-Apr-08 06:56N 32°02' W 081°03'0 0.0
2017-Apr-08 06:26N 32°02' W 081°03'0 0.0
2017-Apr-08 05:56N 32°02' W 081°03'0 0.0
2017-Apr-08 05:26N 32°02' W 081°03'0 0.0
2017-Apr-08 04:50N 32°02' W 081°03'0 0.0
2017-Apr-08 04:26N 32°02' W 081°03'0 0.0
2017-Apr-08 03:50N 32°02' W 081°03'0 0.0
2017-Apr-08 03:26N 32°02' W 081°03'0 0.0
2017-Apr-08 02:56N 32°02' W 081°03'0 0.0
2017-Apr-08 02:26N 32°02' W 081°03'0 0.0
2017-Apr-08 01:56N 32°02' W 081°03'0 0.0
2017-Apr-08 01:26N 32°02' W 081°03'0 0.0
2017-Apr-08 00:56N 32°02' W 081°03'0 0.0
2017-Apr-08 00:14N 32°02' W 081°03'0 0.0
2017-Apr-07 23:56N 32°02' W 081°03'0 0.0
2017-Apr-07 23:20N 32°02' W 081°03'0 0.0
2017-Apr-07 22:56N 32°02' W 081°03'0 0.0
2017-Apr-07 22:26N 32°02' W 081°03'0 0.0
2017-Apr-07 21:56N 32°02' W 081°03'0 0.0
2017-Apr-07 21:26N 32°02' W 081°03'0 0.0
2017-Apr-07 20:56N 32°02' W 081°03'0 0.0
2017-Apr-07 20:26N 32°02' W 081°03'0 0.0
2017-Apr-07 19:56N 32°02' W 081°03'0 0.0
2017-Apr-07 19:20N 32°02' W 081°03'0 0.0
2017-Apr-07 18:56N 32°02' W 081°03'0 0.0
2017-Apr-07 18:26N 32°02' W 081°03'0 0.0
2017-Apr-07 17:50N 32°02' W 081°03'0 0.0
2017-Apr-07 17:26N 32°02' W 081°03'0 0.0
2017-Apr-07 16:56N 32°02' W 081°03'0 0.0
2017-Apr-07 16:20N 32°02' W 081°03'0 0.0
2017-Apr-07 15:56N 32°02' W 081°03'0 0.0
2017-Apr-07 15:26N 32°02' W 081°03'0 0.0
2017-Apr-07 14:44N 32°02' W 081°03'0 0.0
2017-Apr-07 13:56N 32°02' W 081°03'0 0.0
2017-Apr-07 13:30N 32°02' W 081°03'2 4.5
2017-Apr-07 13:00N 32°01' W 081°00'2 4.4
2017-Apr-07 12:28N 32°02' W 081°03'0 0.0
2017-Apr-07 11:58N 32°02' W 081°03'0 0.0
2017-Apr-07 11:20N 32°01' W 081°03'0 0.0
2017-Apr-07 10:56N 32°01' W 081°03'0 0.0
2017-Apr-07 10:26N 32°01' W 081°03'0 0.0
2017-Apr-07 09:56N 32°01' W 081°03'0 0.0
2017-Apr-07 09:20N 32°01' W 081°03'0 0.0
2017-Apr-07 08:56N 32°01' W 081°03'0 0.0
2017-Apr-07 08:20N 32°01' W 081°03'0 0.0
2017-Apr-07 07:56N 32°01' W 081°03'0 0.0
2017-Apr-07 07:26N 32°01' W 081°03'0 0.0
2017-Apr-07 06:56N 32°01' W 081°03'0 0.0
2017-Apr-07 06:26N 32°01' W 081°03'0 0.0
2017-Apr-07 05:56N 32°01' W 081°03'0 0.0
2017-Apr-07 05:26N 32°01' W 081°03'0 0.0
2017-Apr-07 04:50N 32°01' W 081°03'0 0.0
2017-Apr-07 04:26N 32°01' W 081°03'0 0.0
2017-Apr-07 03:56N 32°01' W 081°03'0 0.0
2017-Apr-07 03:14N 32°01' W 081°03'0 0.0
2017-Apr-07 02:56N 32°01' W 081°03'0 0.0
2017-Apr-07 02:26N 32°01' W 081°03'0 0.0
2017-Apr-07 01:56N 32°01' W 081°03'0 0.0
2017-Apr-07 01:26N 32°01' W 081°03'0 0.0
2017-Apr-07 00:56N 32°01' W 081°03'0 0.0
2017-Apr-07 00:14N 32°01' W 081°03'0 0.0
2017-Apr-06 23:50N 32°01' W 081°03'0 0.0
2017-Apr-06 23:26N 32°01' W 081°03'0 0.0
2017-Apr-06 22:56N 32°01' W 081°03'0 0.0
2017-Apr-06 22:26N 32°01' W 081°03'0 0.0
2017-Apr-06 21:56N 32°01' W 081°03'0 0.0
2017-Apr-06 21:26N 32°01' W 081°03'0 0.0
2017-Apr-06 20:56N 32°01' W 081°03'0 0.0
2017-Apr-06 20:26N 32°01' W 081°03'0 0.0
2017-Apr-06 19:56N 32°01' W 081°03'0 0.0
2017-Apr-06 19:26N 32°01' W 081°03'0 0.0
2017-Apr-06 18:50N 32°01' W 081°03'0 0.0
2017-Apr-06 18:26N 32°01' W 081°03'0 0.0
2017-Apr-06 17:32N 32°01' W 081°03'0 0.0
2017-Apr-06 17:26N 32°01' W 081°03'0 0.0
2017-Apr-06 16:50N 32°01' W 081°03'0 0.0
2017-Apr-06 16:26N 32°01' W 081°03'0 0.0
2017-Apr-06 15:56N 32°01' W 081°03'0 0.0
2017-Apr-06 15:26N 32°01' W 081°03'0 0.0
2017-Apr-06 14:56N 32°01' W 081°03'0 0.0
2017-Apr-06 14:26N 32°01' W 081°03'0 0.0
2017-Apr-06 13:26N 32°01' W 081°03'0 0.0
2017-Apr-06 12:50N 32°01' W 081°03'0 0.0
2017-Apr-06 12:26N 32°01' W 081°03'0 0.0
2017-Apr-06 11:56N 32°01' W 081°03'0 0.0
2017-Apr-06 11:26N 32°01' W 081°03'0 0.0
2017-Apr-06 10:44N 32°01' W 081°03'0 0.0
2017-Apr-06 10:20N 32°01' W 081°03'0 0.0
2017-Apr-06 09:56N 32°01' W 081°03'0 0.0
2017-Apr-06 09:26N 32°01' W 081°03'0 0.0
2017-Apr-06 08:56N 32°01' W 081°03'0 0.0
2017-Apr-06 08:26N 32°01' W 081°03'0 0.0
2017-Apr-06 07:56N 32°01' W 081°03'0 0.0
2017-Apr-06 07:26N 32°01' W 081°03'0 0.0
2017-Apr-06 06:56N 32°01' W 081°03'0 0.0
2017-Apr-06 06:26N 32°01' W 081°03'0 0.0
2017-Apr-06 05:56N 32°01' W 081°03'0 0.0
2017-Apr-06 05:26N 32°01' W 081°03'0 0.0
2017-Apr-06 04:56N 32°01' W 081°03'0 0.0
2017-Apr-06 04:26N 32°01' W 081°03'0 0.0
2017-Apr-06 03:56N 32°01' W 081°03'0 0.0
2017-Apr-06 03:26N 32°01' W 081°03'0 0.0
2017-Apr-06 02:56N 32°01' W 081°03'0 0.0
2017-Apr-06 02:26N 32°01' W 081°03'0 0.0
2017-Apr-06 01:56N 32°01' W 081°03'0 0.0
2017-Apr-06 01:26N 32°01' W 081°03'0 0.0
2017-Apr-06 00:56N 32°01' W 081°03'0 0.0
2017-Apr-06 00:26N 32°01' W 081°03'0 0.0
2017-Apr-05 23:50N 32°01' W 081°03'0 0.0
2017-Apr-05 23:26N 32°01' W 081°03'0 0.0
2017-Apr-05 22:44N 32°01' W 081°03'0 0.0
2017-Apr-05 22:26N 32°01' W 081°03'0 0.0
2017-Apr-05 21:56N 32°01' W 081°03'0 0.0
2017-Apr-05 21:26N 32°01' W 081°03'0 0.0
2017-Apr-05 20:56N 32°01' W 081°03'0 0.0
2017-Apr-05 20:20N 32°01' W 081°03'0 0.0
2017-Apr-05 19:56N 32°01' W 081°03'0 0.0
2017-Apr-05 19:26N 32°01' W 081°03'0 0.0
2017-Apr-05 18:44N 32°01' W 081°03'0 0.0
2017-Apr-05 18:26N 32°01' W 081°03'0 0.0
2017-Apr-05 17:44N 32°01' W 081°03'0 0.0
2017-Apr-05 17:26N 32°01' W 081°03'0 0.0
2017-Apr-05 16:56N 32°01' W 081°03'0 0.0
2017-Apr-05 16:26N 32°01' W 081°03'0 0.0
2017-Apr-05 15:44N 32°01' W 081°03'0 0.0
2017-Apr-05 15:26N 32°01' W 081°03'0 0.0
2017-Apr-05 14:56N 32°01' W 081°03'0 0.0
2017-Apr-05 13:56N 32°01' W 081°03'0 0.0
2017-Apr-05 13:26N 32°01' W 081°03'0 0.0
2017-Apr-05 12:56N 32°01' W 081°03'0 0.0
2017-Apr-05 12:26N 32°01' W 081°03'0 0.0
2017-Apr-05 11:56N 32°01' W 081°03'0 0.0
2017-Apr-05 11:26N 32°01' W 081°03'0 0.0
2017-Apr-05 10:56N 32°01' W 081°03'0 0.0
2017-Apr-05 10:14N 32°01' W 081°03'0 0.0
2017-Apr-05 09:50N 32°01' W 081°03'0 0.0
2017-Apr-05 09:26N 32°01' W 081°03'0 0.0
2017-Apr-05 08:56N 32°01' W 081°03'0 0.0
2017-Apr-05 08:20N 32°01' W 081°03'0 0.0
2017-Apr-05 07:56N 32°01' W 081°03'0 0.0
2017-Apr-05 07:26N 32°01' W 081°03'0 0.0
2017-Apr-05 06:56N 32°01' W 081°03'0 0.0
2017-Apr-05 06:26N 32°01' W 081°03'0 0.0
2017-Apr-05 05:56N 32°01' W 081°03'0 0.0
2017-Apr-05 05:26N 32°01' W 081°03'0 0.0
2017-Apr-05 04:50N 32°01' W 081°03'0 0.0
2017-Apr-05 04:26N 32°01' W 081°03'0 0.0
2017-Apr-05 03:56N 32°01' W 081°03'0 0.0
2017-Apr-05 03:26N 32°01' W 081°03'0 0.0
2017-Apr-05 02:56N 32°01' W 081°03'0 0.0
2017-Apr-05 02:26N 32°01' W 081°03'0 0.0
2017-Apr-05 01:50N 32°01' W 081°03'0 0.0
2017-Apr-05 01:26N 32°01' W 081°03'0 0.0
2017-Apr-05 00:56N 32°01' W 081°03'0 0.0
2017-Apr-05 00:26N 32°01' W 081°03'0 0.0
2017-Apr-04 23:56N 32°01' W 081°03'0 0.0
2017-Apr-04 23:26N 32°01' W 081°03'0 0.0
2017-Apr-04 22:56N 32°01' W 081°03'0 0.0
2017-Apr-04 22:20N 32°01' W 081°03'0 0.0
2017-Apr-04 21:56N 32°01' W 081°03'0 0.0
2017-Apr-04 21:26N 32°01' W 081°03'0 0.0
2017-Apr-04 20:56N 32°01' W 081°03'0 0.0
2017-Apr-04 20:26N 32°01' W 081°03'0 0.0
2017-Apr-04 19:50N 32°01' W 081°03'0 0.0
2017-Apr-04 19:26N 32°01' W 081°03'0 0.0
2017-Apr-04 18:56N 32°01' W 081°03'0 0.0
2017-Apr-04 18:20N 32°01' W 081°03'0 0.0
2017-Apr-04 17:56N 32°01' W 081°03'0 0.0
2017-Apr-04 17:20N 32°01' W 081°03'0 0.0
2017-Apr-04 16:56N 32°01' W 081°03'0 0.0
2017-Apr-04 16:26N 32°01' W 081°03'0 0.0
2017-Apr-04 15:56N 32°01' W 081°03'0 0.0
2017-Apr-04 15:26N 32°01' W 081°03'0 0.0
2017-Apr-04 14:50N 32°01' W 081°03'0 0.0
2017-Apr-04 13:56N 32°01' W 081°03'0 0.0
2017-Apr-04 13:26N 32°01' W 081°03'0 0.0
2017-Apr-04 12:56N 32°01' W 081°03'0 0.0
2017-Apr-04 12:26N 32°01' W 081°03'0 0.0
2017-Apr-04 11:56N 32°01' W 081°03'0 0.0
2017-Apr-04 11:26N 32°01' W 081°03'0 0.0
2017-Apr-04 10:56N 32°01' W 081°03'0 0.0
2017-Apr-04 10:08N 32°01' W 081°03'0 0.0
2017-Apr-04 09:50N 32°01' W 081°03'0 0.0
2017-Apr-04 09:26N 32°01' W 081°03'0 0.0
2017-Apr-04 08:56N 32°01' W 081°03'0 0.0
2017-Apr-04 08:26N 32°01' W 081°03'0 0.0
2017-Apr-04 07:56N 32°01' W 081°03'0 0.0
2017-Apr-04 07:26N 32°01' W 081°03'0 0.0
2017-Apr-04 06:56N 32°01' W 081°03'0 0.0
2017-Apr-04 06:26N 32°01' W 081°03'0 0.0
2017-Apr-04 05:50N 32°01' W 081°03'0 0.0
2017-Apr-04 05:20N 32°01' W 081°03'0 0.0
2017-Apr-04 04:56N 32°01' W 081°03'0 0.0
2017-Apr-04 04:26N 32°01' W 081°03'0 0.0
2017-Apr-04 03:56N 32°01' W 081°03'0 0.0
2017-Apr-04 03:26N 32°01' W 081°03'0 0.0
2017-Apr-04 02:56N 32°01' W 081°03'0 0.0
2017-Apr-04 02:20N 32°01' W 081°03'0 0.0
2017-Apr-04 01:56N 32°01' W 081°03'0 0.0
2017-Apr-04 01:26N 32°01' W 081°03'0 0.0
2017-Apr-04 00:56N 32°01' W 081°03'0 0.0
2017-Apr-04 00:26N 32°01' W 081°03'0 0.0
2017-Apr-03 23:56N 32°01' W 081°03'0 0.0
2017-Apr-03 23:20N 32°01' W 081°03'0 0.0
2017-Apr-03 22:50N 32°01' W 081°03'0 0.0
2017-Apr-03 22:26N 32°01' W 081°03'0 0.0
2017-Apr-03 21:56N 32°01' W 081°03'0 0.0
2017-Apr-03 21:26N 32°01' W 081°03'0 0.0
2017-Apr-03 20:56N 32°01' W 081°03'0 0.0
2017-Apr-03 20:26N 32°01' W 081°03'0 0.0
2017-Apr-03 19:56N 32°01' W 081°03'0 0.0
2017-Apr-03 19:17N 32°01' W 081°03'0 0.0
2017-Apr-03 18:59N 32°01' W 081°03'0 0.0
2017-Apr-03 18:23N 32°01' W 081°03'0 0.0
2017-Apr-03 17:59N 32°01' W 081°03'0 0.0
2017-Apr-03 17:29N 32°01' W 081°03'0 0.0
2017-Apr-03 16:59N 32°01' W 081°03'0 0.0
2017-Apr-03 16:29N 32°01' W 081°03'0 0.0
2017-Apr-03 15:59N 32°01' W 081°03'0 0.0
2017-Apr-03 15:29N 32°01' W 081°03'0 0.0
2017-Apr-03 14:59N 32°01' W 081°03'0 0.0
2017-Apr-03 14:29N 32°01' W 081°03'0 0.0
2017-Apr-03 13:05N 32°01' W 081°03'0 0.0
2017-Apr-03 12:59N 32°01' W 081°03'0 0.0
2017-Apr-03 12:23N 32°01' W 081°03'0 0.0
2017-Apr-03 11:59N 32°01' W 081°03'0 0.0
2017-Apr-03 11:29N 32°01' W 081°03'0 0.0
2017-Apr-03 10:59N 32°01' W 081°03'0 0.0
2017-Apr-03 10:29N 32°01' W 081°03'0 0.0
2017-Apr-03 09:59N 32°01' W 081°03'0 0.0
2017-Apr-03 09:29N 32°01' W 081°03'0 0.0
2017-Apr-03 08:59N 32°01' W 081°03'0 0.0
2017-Apr-03 08:29N 32°01' W 081°03'0 0.0
2017-Apr-03 07:59N 32°01' W 081°03'0 0.0
2017-Apr-03 07:29N 32°01' W 081°03'0 0.0
2017-Apr-03 06:47N 32°01' W 081°03'0 0.0
2017-Apr-03 06:29N 32°01' W 081°03'0 0.0
2017-Apr-03 05:41N 32°01' W 081°03'0 0.0
2017-Apr-03 05:29N 32°01' W 081°03'0 0.0
2017-Apr-03 04:59N 32°01' W 081°03'0 0.0
2017-Apr-03 04:29N 32°01' W 081°03'0 0.0
2017-Apr-03 03:59N 32°01' W 081°03'0 0.0
2017-Apr-03 03:29N 32°01' W 081°03'0 0.0
2017-Apr-03 02:59N 32°01' W 081°03'0 0.0
2017-Apr-03 02:29N 32°01' W 081°03'0 0.0
2017-Apr-03 01:59N 32°01' W 081°03'0 0.0
2017-Apr-03 01:29N 32°01' W 081°03'0 0.0
2017-Apr-03 00:53N 32°01' W 081°03'0 0.0
2017-Apr-03 00:29N 32°01' W 081°03'0 0.0
2017-Apr-02 23:59N 32°01' W 081°03'0 0.0
2017-Apr-02 23:29N 32°01' W 081°03'0 0.0
2017-Apr-02 22:59N 32°01' W 081°03'0 0.0
2017-Apr-02 22:17N 32°01' W 081°03'0 0.0
2017-Apr-02 21:53N 32°01' W 081°03'0 0.0
2017-Apr-02 21:29N 32°01' W 081°03'0 0.0
2017-Apr-02 20:59N 32°01' W 081°03'0 0.0
2017-Apr-02 20:29N 32°01' W 081°03'0 0.0
2017-Apr-02 19:59N 32°01' W 081°03'0 0.0
2017-Apr-02 19:29N 32°01' W 081°03'0 0.0
2017-Apr-02 18:59N 32°01' W 081°03'0 0.0
2017-Apr-02 18:29N 32°01' W 081°03'0 0.0
2017-Apr-02 17:59N 32°01' W 081°03'0 0.0
2017-Apr-02 17:29N 32°01' W 081°03'0 0.0
2017-Apr-02 16:59N 32°01' W 081°03'0 0.0
2017-Apr-02 16:29N 32°01' W 081°03'0 0.0
2017-Apr-02 15:59N 32°01' W 081°03'0 0.0
2017-Apr-02 15:29N 32°01' W 081°03'0 0.0
2017-Apr-02 14:53N 32°01' W 081°03'0 0.0
2017-Apr-02 13:59N 32°01' W 081°03'0 0.0
2017-Apr-02 13:29N 32°01' W 081°03'0 0.0
2017-Apr-02 12:59N 32°01' W 081°03'0 0.0
2017-Apr-02 12:29N 32°01' W 081°03'0 0.0
2017-Apr-02 11:59N 32°01' W 081°03'0 0.0
2017-Apr-02 11:29N 32°01' W 081°03'0 0.0
2017-Apr-02 10:59N 32°01' W 081°03'0 0.0
2017-Apr-02 10:11N 32°01' W 081°03'0 0.0
2017-Apr-02 09:59N 32°01' W 081°03'0 0.0
2017-Apr-02 09:29N 32°01' W 081°03'0 0.0
2017-Apr-02 08:59N 32°01' W 081°03'0 0.0
2017-Apr-02 08:29N 32°01' W 081°03'0 0.0
2017-Apr-02 07:41N 32°01' W 081°03'0 0.0
2017-Apr-02 07:29N 32°01' W 081°03'0 0.0
2017-Apr-02 06:53N 32°01' W 081°03'0 0.0
2017-Apr-02 06:29N 32°01' W 081°03'0 0.0
2017-Apr-02 05:59N 32°01' W 081°03'0 0.0
2017-Apr-02 05:29N 32°01' W 081°03'0 0.0
2017-Apr-02 04:53N 32°01' W 081°03'0 0.0
2017-Apr-02 04:23N 32°01' W 081°03'0 0.0
2017-Apr-02 03:59N 32°01' W 081°03'0 0.0
2017-Apr-02 03:23N 32°01' W 081°03'0 0.0
2017-Apr-02 02:59N 32°01' W 081°03'0 0.0
2017-Apr-02 02:29N 32°01' W 081°03'0 0.0
2017-Apr-02 01:59N 32°01' W 081°03'0 0.0
2017-Apr-02 01:29N 32°01' W 081°03'0 0.0
2017-Apr-02 00:53N 32°01' W 081°03'0 0.0
2017-Apr-02 00:29N 32°01' W 081°03'0 0.0
2017-Apr-01 23:59N 32°01' W 081°03'0 0.0
2017-Apr-01 23:29N 32°01' W 081°03'0 0.0
2017-Apr-01 22:59N 32°01' W 081°03'0 0.0
2017-Apr-01 22:29N 32°01' W 081°03'0 0.0
2017-Apr-01 21:59N 32°01' W 081°03'0 0.0
2017-Apr-01 21:29N 32°01' W 081°03'0 0.0
2017-Apr-01 20:59N 32°01' W 081°03'0 0.0
2017-Apr-01 20:29N 32°01' W 081°03'0 0.0
2017-Apr-01 19:59N 32°01' W 081°03'0 0.0
2017-Apr-01 19:29N 32°01' W 081°03'0 0.0
2017-Apr-01 18:59N 32°01' W 081°03'0 0.0
2017-Apr-01 18:23N 32°01' W 081°03'0 0.0
2017-Apr-01 17:29N 32°01' W 081°03'0 0.0
2017-Apr-01 16:59N 32°01' W 081°03'0 0.0
2017-Apr-01 16:29N 32°01' W 081°03'0 0.0
2017-Apr-01 15:59N 32°01' W 081°03'0 0.0
2017-Apr-01 15:23N 32°01' W 081°03'0 0.0
2017-Apr-01 14:59N 32°01' W 081°03'0 0.0
2017-Apr-01 13:59N 32°01' W 081°03'0 0.0
2017-Apr-01 13:29N 32°01' W 081°03'0 0.0
2017-Apr-01 12:59N 32°01' W 081°03'0 0.0
2017-Apr-01 12:29N 32°01' W 081°03'0 0.0
2017-Apr-01 11:59N 32°01' W 081°03'0 0.0
2017-Apr-01 11:29N 32°01' W 081°03'0 0.0
2017-Apr-01 10:59N 32°01' W 081°03'0 0.0
2017-Apr-01 10:29N 32°01' W 081°03'0 0.0
2017-Apr-01 09:53N 32°01' W 081°03'0 0.0
2017-Apr-01 09:29N 32°01' W 081°03'0 0.0
2017-Apr-01 08:47N 32°01' W 081°03'0 0.0
2017-Apr-01 08:29N 32°01' W 081°03'0 0.0
2017-Apr-01 07:59N 32°01' W 081°03'0 0.0
2017-Apr-01 07:11N 32°01' W 081°03'0 0.0
2017-Apr-01 06:59N 32°01' W 081°03'0 0.0
2017-Apr-01 06:29N 32°01' W 081°03'0 0.0
2017-Apr-01 05:59N 32°01' W 081°03'0 0.0
2017-Apr-01 05:23N 32°01' W 081°03'0 0.0
2017-Apr-01 04:53N 32°01' W 081°03'0 0.0
2017-Apr-01 04:29N 32°01' W 081°03'0 0.0
2017-Apr-01 03:59N 32°01' W 081°03'0 0.0
2017-Apr-01 03:29N 32°01' W 081°03'0 0.0
2017-Apr-01 02:59N 32°01' W 081°03'0 0.0
2017-Apr-01 02:29N 32°01' W 081°03'0 0.0
2017-Apr-01 01:59N 32°01' W 081°03'0 0.0
2017-Apr-01 01:29N 32°01' W 081°03'0 0.0
2017-Apr-01 00:59N 32°01' W 081°03'0 0.0
2017-Apr-01 00:29N 32°01' W 081°03'0 0.0
2017-Mar-31 23:59N 32°01' W 081°03'0 0.0
2017-Mar-31 23:29N 32°01' W 081°03'0 0.0
2017-Mar-31 22:59N 32°01' W 081°03'0 0.0
2017-Mar-31 22:29N 32°01' W 081°03'0 0.0
2017-Mar-31 21:59N 32°01' W 081°03'0 0.0
2017-Mar-31 21:29N 32°01' W 081°03'0 0.0
2017-Mar-31 20:59N 32°01' W 081°03'0 0.0
2017-Mar-31 20:29N 32°01' W 081°03'0 0.0
2017-Mar-31 19:59N 32°01' W 081°03'0 0.0
2017-Mar-31 19:29N 32°01' W 081°03'0 0.0
2017-Mar-31 18:59N 32°01' W 081°03'0 0.0
2017-Mar-31 18:29N 32°01' W 081°03'0 0.0
2017-Mar-31 17:59N 32°01' W 081°03'0 0.0
2017-Mar-31 17:29N 32°01' W 081°03'0 0.0
2017-Mar-31 16:59N 32°01' W 081°03'0 0.0
2017-Mar-31 16:29N 32°01' W 081°03'0 0.0
2017-Mar-31 15:53N 32°01' W 081°03'0 0.0
2017-Mar-31 15:29N 32°01' W 081°03'0 0.0
2017-Mar-31 14:59N 32°01' W 081°03'0 0.0
2017-Mar-31 13:59N 32°01' W 081°03'0 0.0
2017-Mar-31 13:29N 32°01' W 081°03'0 0.0
2017-Mar-31 12:53N 32°01' W 081°03'0 0.0
2017-Mar-31 12:29N 32°01' W 081°03'0 0.0
2017-Mar-31 11:59N 32°01' W 081°03'0 0.0
2017-Mar-31 11:23N 32°01' W 081°03'0 0.0
2017-Mar-31 10:53N 32°01' W 081°03'0 0.0
2017-Mar-31 10:17N 32°01' W 081°03'0 0.0
2017-Mar-31 09:59N 32°01' W 081°03'0 0.0
2017-Mar-31 09:29N 32°01' W 081°03'0 0.0
2017-Mar-31 08:53N 32°01' W 081°03'0 0.0
2017-Mar-31 08:29N 32°01' W 081°03'0 0.0
2017-Mar-31 07:59N 32°01' W 081°03'0 0.0
2017-Mar-31 07:23N 32°01' W 081°03'0 0.0
2017-Mar-31 06:59N 32°01' W 081°03'0 0.0
2017-Mar-31 06:29N 32°01' W 081°03'0 0.0
2017-Mar-31 05:59N 32°01' W 081°03'0 0.0
2017-Mar-31 05:29N 32°01' W 081°03'0 0.0
2017-Mar-31 04:59N 32°01' W 081°03'0 0.0
2017-Mar-31 04:29N 32°01' W 081°03'0 0.0
2017-Mar-31 03:29N 32°01' W 081°03'0 0.0
2017-Mar-31 02:29N 32°01' W 081°03'0 0.0
2017-Mar-31 01:23N 32°01' W 081°03'0 0.0
2017-Mar-31 00:29N 32°01' W 081°03'0 0.0
2017-Mar-30 23:29N 32°01' W 081°03'0 0.0
2017-Mar-30 22:29N 32°01' W 081°03'0 0.0
2017-Mar-30 21:23N 32°01' W 081°03'0 0.0
2017-Mar-30 20:29N 32°01' W 081°03'0 0.0
2017-Mar-30 19:23N 32°01' W 081°03'0 0.0
2017-Mar-30 18:23N 32°01' W 081°03'0 0.0
2017-Mar-30 17:29N 32°01' W 081°03'0 0.0
2017-Mar-30 16:29N 32°01' W 081°03'0 0.0
2017-Mar-30 15:11N 32°01' W 081°03'0 0.0
2017-Mar-30 14:29N 32°01' W 081°03'0 0.0
2017-Mar-30 13:29N 32°01' W 081°03'0 0.0
2017-Mar-30 12:29N 32°01' W 081°03'0 0.0
2017-Mar-30 11:23N 32°01' W 081°03'0 0.0
2017-Mar-30 10:29N 32°01' W 081°03'0 0.0
2017-Mar-30 09:29N 32°01' W 081°03'0 0.0
2017-Mar-30 08:29N 32°01' W 081°03'0 0.0
2017-Mar-30 07:29N 32°01' W 081°03'0 0.0
2017-Mar-30 06:29N 32°01' W 081°03'0 0.0
2017-Mar-30 05:29N 32°01' W 081°03'0 0.0
2017-Mar-30 04:29N 32°01' W 081°03'0 0.0
2017-Mar-30 03:29N 32°01' W 081°03'0 0.0
2017-Mar-30 02:29N 32°01' W 081°03'0 0.0
2017-Mar-30 01:17N 32°01' W 081°03'0 0.0
2017-Mar-30 00:29N 32°01' W 081°03'0 0.0
2017-Mar-29 23:29N 32°01' W 081°03'0 0.0
2017-Mar-29 22:29N 32°01' W 081°03'0 0.0
2017-Mar-29 21:29N 32°01' W 081°03'0 0.0
2017-Mar-29 20:29N 32°01' W 081°03'0 0.0
2017-Mar-29 19:29N 32°01' W 081°03'0 0.0
2017-Mar-29 18:29N 32°01' W 081°03'0 0.0
2017-Mar-29 17:29N 32°01' W 081°03'0 0.0
2017-Mar-29 16:29N 32°01' W 081°03'0 0.0
2017-Mar-29 15:29N 32°01' W 081°03'0 0.0
2017-Mar-29 14:29N 32°01' W 081°03'  
Track history (hours):
 
Tides and Currents Weather Stations Pressure Air Temp Water Temp Dewpoint Dewpoint Depression Visibility Wind Speed Wind Dir Waves Ship Positions

Ann Marie Rose

Last reported at 2017-Apr-08 14:00 UTC. Time now 2017-Sep-22 02:59 UTC.
Position N 32°02' W 080°55'.
Warning: this ship's position is months out of date.

Length 14 m.

Type: Pleasure craft. MMSI: 338095872.

Date/timePositionNaut miles runAvg speedWind from/ knotsBaromVisibWave heightAir tempDewpointWater temp
2017-Apr-08 14:00N 32°02' W 080°55'4 7.9
2017-Apr-08 13:30N 32°04' W 080°59'2 4.8
2017-Apr-08 13:00N 32°03' W 081°02'2 2.4
2017-Apr-08 12:20N 32°02' W 081°03'0 0.0
2017-Apr-08 11:50N 32°02' W 081°03'0 0.0
2017-Apr-08 11:20N 32°02' W 081°03'0 0.0
2017-Apr-08 10:56N 32°02' W 081°03'0 0.0
2017-Apr-08 10:26N 32°02' W 081°03'0 0.0
2017-Apr-08 09:56N 32°02' W 081°03'0 0.0
2017-Apr-08 09:26N 32°02' W 081°03'0 0.0
2017-Apr-08 08:56N 32°02' W 081°03'0 0.0
2017-Apr-08 08:26N 32°02' W 081°03'0 0.0
2017-Apr-08 07:56N 32°02' W 081°03'0 0.0
2017-Apr-08 07:26N 32°02' W 081°03'0 0.0
2017-Apr-08 06:56N 32°02' W 081°03'0 0.0
2017-Apr-08 06:26N 32°02' W 081°03'0 0.0
2017-Apr-08 05:56N 32°02' W 081°03'0 0.0
2017-Apr-08 05:26N 32°02' W 081°03'0 0.0
2017-Apr-08 04:50N 32°02' W 081°03'0 0.0
2017-Apr-08 04:26N 32°02' W 081°03'0 0.0
2017-Apr-08 03:50N 32°02' W 081°03'0 0.0
2017-Apr-08 03:26N 32°02' W 081°03'0 0.0
2017-Apr-08 02:56N 32°02' W 081°03'0 0.0
2017-Apr-08 02:26N 32°02' W 081°03'0 0.0
2017-Apr-08 01:56N 32°02' W 081°03'0 0.0
2017-Apr-08 01:26N 32°02' W 081°03'0 0.0
2017-Apr-08 00:56N 32°02' W 081°03'0 0.0
2017-Apr-08 00:14N 32°02' W 081°03'0 0.0
2017-Apr-07 23:56N 32°02' W 081°03'0 0.0
2017-Apr-07 23:20N 32°02' W 081°03'0 0.0
2017-Apr-07 22:56N 32°02' W 081°03'0 0.0
2017-Apr-07 22:26N 32°02' W 081°03'0 0.0
2017-Apr-07 21:56N 32°02' W 081°03'0 0.0
2017-Apr-07 21:26N 32°02' W 081°03'0 0.0
2017-Apr-07 20:56N 32°02' W 081°03'0 0.0
2017-Apr-07 20:26N 32°02' W 081°03'0 0.0
2017-Apr-07 19:56N 32°02' W 081°03'0 0.0
2017-Apr-07 19:20N 32°02' W 081°03'0 0.0
2017-Apr-07 18:56N 32°02' W 081°03'0 0.0
2017-Apr-07 18:26N 32°02' W 081°03'0 0.0
2017-Apr-07 17:50N 32°02' W 081°03'0 0.0
2017-Apr-07 17:26N 32°02' W 081°03'0 0.0
2017-Apr-07 16:56N 32°02' W 081°03'0 0.0
2017-Apr-07 16:20N 32°02' W 081°03'0 0.0
2017-Apr-07 15:56N 32°02' W 081°03'0 0.0
2017-Apr-07 15:26N 32°02' W 081°03'0 0.0
2017-Apr-07 14:44N 32°02' W 081°03'0 0.0
2017-Apr-07 13:56N 32°02' W 081°03'0 0.0
2017-Apr-07 13:30N 32°02' W 081°03'2 4.5
2017-Apr-07 13:00N 32°01' W 081°00'2 4.4
2017-Apr-07 12:28N 32°02' W 081°03'0 0.0
2017-Apr-07 11:58N 32°02' W 081°03'0 0.0
2017-Apr-07 11:20N 32°01' W 081°03'0 0.0
2017-Apr-07 10:56N 32°01' W 081°03'0 0.0
2017-Apr-07 10:26N 32°01' W 081°03'0 0.0
2017-Apr-07 09:56N 32°01' W 081°03'0 0.0
2017-Apr-07 09:20N 32°01' W 081°03'0 0.0
2017-Apr-07 08:56N 32°01' W 081°03'0 0.0
2017-Apr-07 08:20N 32°01' W 081°03'0 0.0
2017-Apr-07 07:56N 32°01' W 081°03'0 0.0
2017-Apr-07 07:26N 32°01' W 081°03'0 0.0
2017-Apr-07 06:56N 32°01' W 081°03'0 0.0
2017-Apr-07 06:26N 32°01' W 081°03'0 0.0
2017-Apr-07 05:56N 32°01' W 081°03'0 0.0
2017-Apr-07 05:26N 32°01' W 081°03'0 0.0
2017-Apr-07 04:50N 32°01' W 081°03'0 0.0
2017-Apr-07 04:26N 32°01' W 081°03'0 0.0
2017-Apr-07 03:56N 32°01' W 081°03'0 0.0
2017-Apr-07 03:14N 32°01' W 081°03'0 0.0
2017-Apr-07 02:56N 32°01' W 081°03'0 0.0
2017-Apr-07 02:26N 32°01' W 081°03'0 0.0
2017-Apr-07 01:56N 32°01' W 081°03'0 0.0
2017-Apr-07 01:26N 32°01' W 081°03'0 0.0
2017-Apr-07 00:56N 32°01' W 081°03'0 0.0
2017-Apr-07 00:14N 32°01' W 081°03'0 0.0
2017-Apr-06 23:50N 32°01' W 081°03'0 0.0
2017-Apr-06 23:26N 32°01' W 081°03'0 0.0
2017-Apr-06 22:56N 32°01' W 081°03'0 0.0
2017-Apr-06 22:26N 32°01' W 081°03'0 0.0
2017-Apr-06 21:56N 32°01' W 081°03'0 0.0
2017-Apr-06 21:26N 32°01' W 081°03'0 0.0
2017-Apr-06 20:56N 32°01' W 081°03'0 0.0
2017-Apr-06 20:26N 32°01' W 081°03'0 0.0
2017-Apr-06 19:56N 32°01' W 081°03'0 0.0
2017-Apr-06 19:26N 32°01' W 081°03'0 0.0
2017-Apr-06 18:50N 32°01' W 081°03'0 0.0
2017-Apr-06 18:26N 32°01' W 081°03'0 0.0
2017-Apr-06 17:32N 32°01' W 081°03'0 0.0
2017-Apr-06 17:26N 32°01' W 081°03'0 0.0
2017-Apr-06 16:50N 32°01' W 081°03'0 0.0
2017-Apr-06 16:26N 32°01' W 081°03'0 0.0
2017-Apr-06 15:56N 32°01' W 081°03'0 0.0
2017-Apr-06 15:26N 32°01' W 081°03'0 0.0
2017-Apr-06 14:56N 32°01' W 081°03'0 0.0
2017-Apr-06 14:26N 32°01' W 081°03'0 0.0
2017-Apr-06 13:26N 32°01' W 081°03'0 0.0
2017-Apr-06 12:50N 32°01' W 081°03'0 0.0
2017-Apr-06 12:26N 32°01' W 081°03'0 0.0
2017-Apr-06 11:56N 32°01' W 081°03'0 0.0
2017-Apr-06 11:26N 32°01' W 081°03'0 0.0
2017-Apr-06 10:44N 32°01' W 081°03'0 0.0
2017-Apr-06 10:20N 32°01' W 081°03'0 0.0
2017-Apr-06 09:56N 32°01' W 081°03'0 0.0
2017-Apr-06 09:26N 32°01' W 081°03'0 0.0
2017-Apr-06 08:56N 32°01' W 081°03'0 0.0
2017-Apr-06 08:26N 32°01' W 081°03'0 0.0
2017-Apr-06 07:56N 32°01' W 081°03'0 0.0
2017-Apr-06 07:26N 32°01' W 081°03'0 0.0
2017-Apr-06 06:56N 32°01' W 081°03'0 0.0
2017-Apr-06 06:26N 32°01' W 081°03'0 0.0
2017-Apr-06 05:56N 32°01' W 081°03'0 0.0
2017-Apr-06 05:26N 32°01' W 081°03'0 0.0
2017-Apr-06 04:56N 32°01' W 081°03'0 0.0
2017-Apr-06 04:26N 32°01' W 081°03'0 0.0
2017-Apr-06 03:56N 32°01' W 081°03'0 0.0
2017-Apr-06 03:26N 32°01' W 081°03'0 0.0
2017-Apr-06 02:56N 32°01' W 081°03'0 0.0
2017-Apr-06 02:26N 32°01' W 081°03'0 0.0
2017-Apr-06 01:56N 32°01' W 081°03'0 0.0
2017-Apr-06 01:26N 32°01' W 081°03'0 0.0
2017-Apr-06 00:56N 32°01' W 081°03'0 0.0
2017-Apr-06 00:26N 32°01' W 081°03'0 0.0
2017-Apr-05 23:50N 32°01' W 081°03'0 0.0
2017-Apr-05 23:26N 32°01' W 081°03'0 0.0
2017-Apr-05 22:44N 32°01' W 081°03'0 0.0
2017-Apr-05 22:26N 32°01' W 081°03'0 0.0
2017-Apr-05 21:56N 32°01' W 081°03'0 0.0
2017-Apr-05 21:26N 32°01' W 081°03'0 0.0
2017-Apr-05 20:56N 32°01' W 081°03'0 0.0
2017-Apr-05 20:20N 32°01' W 081°03'0 0.0
2017-Apr-05 19:56N 32°01' W 081°03'0 0.0
2017-Apr-05 19:26N 32°01' W 081°03'0 0.0
2017-Apr-05 18:44N 32°01' W 081°03'0 0.0
2017-Apr-05 18:26N 32°01' W 081°03'0 0.0
2017-Apr-05 17:44N 32°01' W 081°03'0 0.0
2017-Apr-05 17:26N 32°01' W 081°03'0 0.0
2017-Apr-05 16:56N 32°01' W 081°03'0 0.0
2017-Apr-05 16:26N 32°01' W 081°03'0 0.0
2017-Apr-05 15:44N 32°01' W 081°03'0 0.0
2017-Apr-05 15:26N 32°01' W 081°03'0 0.0
2017-Apr-05 14:56N 32°01' W 081°03'0 0.0
2017-Apr-05 13:56N 32°01' W 081°03'0 0.0
2017-Apr-05 13:26N 32°01' W 081°03'0 0.0
2017-Apr-05 12:56N 32°01' W 081°03'0 0.0
2017-Apr-05 12:26N 32°01' W 081°03'0 0.0
2017-Apr-05 11:56N 32°01' W 081°03'0 0.0
2017-Apr-05 11:26N 32°01' W 081°03'0 0.0
2017-Apr-05 10:56N 32°01' W 081°03'0 0.0
2017-Apr-05 10:14N 32°01' W 081°03'0 0.0
2017-Apr-05 09:50N 32°01' W 081°03'0 0.0
2017-Apr-05 09:26N 32°01' W 081°03'0 0.0
2017-Apr-05 08:56N 32°01' W 081°03'0 0.0
2017-Apr-05 08:20N 32°01' W 081°03'0 0.0
2017-Apr-05 07:56N 32°01' W 081°03'0 0.0
2017-Apr-05 07:26N 32°01' W 081°03'0 0.0
2017-Apr-05 06:56N 32°01' W 081°03'0 0.0
2017-Apr-05 06:26N 32°01' W 081°03'0 0.0
2017-Apr-05 05:56N 32°01' W 081°03'0 0.0
2017-Apr-05 05:26N 32°01' W 081°03'0 0.0
2017-Apr-05 04:50N 32°01' W 081°03'0 0.0
2017-Apr-05 04:26N 32°01' W 081°03'0 0.0
2017-Apr-05 03:56N 32°01' W 081°03'0 0.0
2017-Apr-05 03:26N 32°01' W 081°03'0 0.0
2017-Apr-05 02:56N 32°01' W 081°03'0 0.0
2017-Apr-05 02:26N 32°01' W 081°03'0 0.0
2017-Apr-05 01:50N 32°01' W 081°03'0 0.0
2017-Apr-05 01:26N 32°01' W 081°03'0 0.0
2017-Apr-05 00:56N 32°01' W 081°03'0 0.0
2017-Apr-05 00:26N 32°01' W 081°03'0 0.0
2017-Apr-04 23:56N 32°01' W 081°03'0 0.0
2017-Apr-04 23:26N 32°01' W 081°03'0 0.0
2017-Apr-04 22:56N 32°01' W 081°03'0 0.0
2017-Apr-04 22:20N 32°01' W 081°03'0 0.0
2017-Apr-04 21:56N 32°01' W 081°03'0 0.0
2017-Apr-04 21:26N 32°01' W 081°03'0 0.0
2017-Apr-04 20:56N 32°01' W 081°03'0 0.0
2017-Apr-04 20:26N 32°01' W 081°03'0 0.0
2017-Apr-04 19:50N 32°01' W 081°03'0 0.0
2017-Apr-04 19:26N 32°01' W 081°03'0 0.0
2017-Apr-04 18:56N 32°01' W 081°03'0 0.0
2017-Apr-04 18:20N 32°01' W 081°03'0 0.0
2017-Apr-04 17:56N 32°01' W 081°03'0 0.0
2017-Apr-04 17:20N 32°01' W 081°03'0 0.0
2017-Apr-04 16:56N 32°01' W 081°03'0 0.0
2017-Apr-04 16:26N 32°01' W 081°03'0 0.0
2017-Apr-04 15:56N 32°01' W 081°03'0 0.0
2017-Apr-04 15:26N 32°01' W 081°03'0 0.0
2017-Apr-04 14:50N 32°01' W 081°03'0 0.0
2017-Apr-04 13:56N 32°01' W 081°03'0 0.0
2017-Apr-04 13:26N 32°01' W 081°03'0 0.0
2017-Apr-04 12:56N 32°01' W 081°03'0 0.0
2017-Apr-04 12:26N 32°01' W 081°03'0 0.0
2017-Apr-04 11:56N 32°01' W 081°03'0 0.0
2017-Apr-04 11:26N 32°01' W 081°03'0 0.0
2017-Apr-04 10:56N 32°01' W 081°03'0 0.0
2017-Apr-04 10:08N 32°01' W 081°03'0 0.0
2017-Apr-04 09:50N 32°01' W 081°03'0 0.0
2017-Apr-04 09:26N 32°01' W 081°03'0 0.0
2017-Apr-04 08:56N 32°01' W 081°03'0 0.0
2017-Apr-04 08:26N 32°01' W 081°03'0 0.0
2017-Apr-04 07:56N 32°01' W 081°03'0 0.0
2017-Apr-04 07:26N 32°01' W 081°03'0 0.0
2017-Apr-04 06:56N 32°01' W 081°03'0 0.0
2017-Apr-04 06:26N 32°01' W 081°03'0 0.0
2017-Apr-04 05:50N 32°01' W 081°03'0 0.0
2017-Apr-04 05:20N 32°01' W 081°03'0 0.0
2017-Apr-04 04:56N 32°01' W 081°03'0 0.0
2017-Apr-04 04:26N 32°01' W 081°03'0 0.0
2017-Apr-04 03:56N 32°01' W 081°03'0 0.0
2017-Apr-04 03:26N 32°01' W 081°03'0 0.0
2017-Apr-04 02:56N 32°01' W 081°03'0 0.0
2017-Apr-04 02:20N 32°01' W 081°03'0 0.0
2017-Apr-04 01:56N 32°01' W 081°03'0 0.0
2017-Apr-04 01:26N 32°01' W 081°03'0 0.0
2017-Apr-04 00:56N 32°01' W 081°03'0 0.0
2017-Apr-04 00:26N 32°01' W 081°03'0 0.0
2017-Apr-03 23:56N 32°01' W 081°03'0 0.0
2017-Apr-03 23:20N 32°01' W 081°03'0 0.0
2017-Apr-03 22:50N 32°01' W 081°03'0 0.0
2017-Apr-03 22:26N 32°01' W 081°03'0 0.0
2017-Apr-03 21:56N 32°01' W 081°03'0 0.0
2017-Apr-03 21:26N 32°01' W 081°03'0 0.0
2017-Apr-03 20:56N 32°01' W 081°03'0 0.0
2017-Apr-03 20:26N 32°01' W 081°03'0 0.0
2017-Apr-03 19:56N 32°01' W 081°03'0 0.0
2017-Apr-03 19:17N 32°01' W 081°03'0 0.0
2017-Apr-03 18:59N 32°01' W 081°03'0 0.0
2017-Apr-03 18:23N 32°01' W 081°03'0 0.0
2017-Apr-03 17:59N 32°01' W 081°03'0 0.0
2017-Apr-03 17:29N 32°01' W 081°03'0 0.0
2017-Apr-03 16:59N 32°01' W 081°03'0 0.0
2017-Apr-03 16:29N 32°01' W 081°03'0 0.0
2017-Apr-03 15:59N 32°01' W 081°03'0 0.0
2017-Apr-03 15:29N 32°01' W 081°03'0 0.0
2017-Apr-03 14:59N 32°01' W 081°03'0 0.0
2017-Apr-03 14:29N 32°01' W 081°03'0 0.0
2017-Apr-03 13:05N 32°01' W 081°03'0 0.0
2017-Apr-03 12:59N 32°01' W 081°03'0 0.0
2017-Apr-03 12:23N 32°01' W 081°03'0 0.0
2017-Apr-03 11:59N 32°01' W 081°03'0 0.0
2017-Apr-03 11:29N 32°01' W 081°03'0 0.0
2017-Apr-03 10:59N 32°01' W 081°03'0 0.0
2017-Apr-03 10:29N 32°01' W 081°03'0 0.0
2017-Apr-03 09:59N 32°01' W 081°03'0 0.0
2017-Apr-03 09:29N 32°01' W 081°03'0 0.0
2017-Apr-03 08:59N 32°01' W 081°03'0 0.0
2017-Apr-03 08:29N 32°01' W 081°03'0 0.0
2017-Apr-03 07:59N 32°01' W 081°03'0 0.0
2017-Apr-03 07:29N 32°01' W 081°03'0 0.0
2017-Apr-03 06:47N 32°01' W 081°03'0 0.0
2017-Apr-03 06:29N 32°01' W 081°03'0 0.0
2017-Apr-03 05:41N 32°01' W 081°03'0 0.0
2017-Apr-03 05:29N 32°01' W 081°03'0 0.0
2017-Apr-03 04:59N 32°01' W 081°03'0 0.0
2017-Apr-03 04:29N 32°01' W 081°03'0 0.0
2017-Apr-03 03:59N 32°01' W 081°03'0 0.0
2017-Apr-03 03:29N 32°01' W 081°03'0 0.0
2017-Apr-03 02:59N 32°01' W 081°03'0 0.0
2017-Apr-03 02:29N 32°01' W 081°03'0 0.0
2017-Apr-03 01:59N 32°01' W 081°03'0 0.0
2017-Apr-03 01:29N 32°01' W 081°03'0 0.0
2017-Apr-03 00:53N 32°01' W 081°03'0 0.0
2017-Apr-03 00:29N 32°01' W 081°03'0 0.0
2017-Apr-02 23:59N 32°01' W 081°03'0 0.0
2017-Apr-02 23:29N 32°01' W 081°03'0 0.0
2017-Apr-02 22:59N 32°01' W 081°03'0 0.0
2017-Apr-02 22:17N 32°01' W 081°03'0 0.0
2017-Apr-02 21:53N 32°01' W 081°03'0 0.0
2017-Apr-02 21:29N 32°01' W 081°03'0 0.0
2017-Apr-02 20:59N 32°01' W 081°03'0 0.0
2017-Apr-02 20:29N 32°01' W 081°03'0 0.0
2017-Apr-02 19:59N 32°01' W 081°03'0 0.0
2017-Apr-02 19:29N 32°01' W 081°03'0 0.0
2017-Apr-02 18:59N 32°01' W 081°03'0 0.0
2017-Apr-02 18:29N 32°01' W 081°03'0 0.0
2017-Apr-02 17:59N 32°01' W 081°03'0 0.0
2017-Apr-02 17:29N 32°01' W 081°03'0 0.0
2017-Apr-02 16:59N 32°01' W 081°03'0 0.0
2017-Apr-02 16:29N 32°01' W 081°03'0 0.0
2017-Apr-02 15:59N 32°01' W 081°03'0 0.0
2017-Apr-02 15:29N 32°01' W 081°03'0 0.0
2017-Apr-02 14:53N 32°01' W 081°03'0 0.0
2017-Apr-02 13:59N 32°01' W 081°03'0 0.0
2017-Apr-02 13:29N 32°01' W 081°03'0 0.0
2017-Apr-02 12:59N 32°01' W 081°03'0 0.0
2017-Apr-02 12:29N 32°01' W 081°03'0 0.0
2017-Apr-02 11:59N 32°01' W 081°03'0 0.0
2017-Apr-02 11:29N 32°01' W 081°03'0 0.0
2017-Apr-02 10:59N 32°01' W 081°03'0 0.0
2017-Apr-02 10:11N 32°01' W 081°03'0 0.0
2017-Apr-02 09:59N 32°01' W 081°03'0 0.0
2017-Apr-02 09:29N 32°01' W 081°03'0 0.0
2017-Apr-02 08:59N 32°01' W 081°03'0 0.0
2017-Apr-02 08:29N 32°01' W 081°03'0 0.0
2017-Apr-02 07:41N 32°01' W 081°03'0 0.0
2017-Apr-02 07:29N 32°01' W 081°03'0 0.0
2017-Apr-02 06:53N 32°01' W 081°03'0 0.0
2017-Apr-02 06:29N 32°01' W 081°03'0 0.0
2017-Apr-02 05:59N 32°01' W 081°03'0 0.0
2017-Apr-02 05:29N 32°01' W 081°03'0 0.0
2017-Apr-02 04:53N 32°01' W 081°03'0 0.0
2017-Apr-02 04:23N 32°01' W 081°03'0 0.0
2017-Apr-02 03:59N 32°01' W 081°03'0 0.0
2017-Apr-02 03:23N 32°01' W 081°03'0 0.0
2017-Apr-02 02:59N 32°01' W 081°03'0 0.0
2017-Apr-02 02:29N 32°01' W 081°03'0 0.0
2017-Apr-02 01:59N 32°01' W 081°03'0 0.0
2017-Apr-02 01:29N 32°01' W 081°03'0 0.0
2017-Apr-02 00:53N 32°01' W 081°03'0 0.0
2017-Apr-02 00:29N 32°01' W 081°03'0 0.0
2017-Apr-01 23:59N 32°01' W 081°03'0 0.0
2017-Apr-01 23:29N 32°01' W 081°03'0 0.0
2017-Apr-01 22:59N 32°01' W 081°03'0 0.0
2017-Apr-01 22:29N 32°01' W 081°03'0 0.0
2017-Apr-01 21:59N 32°01' W 081°03'0 0.0
2017-Apr-01 21:29N 32°01' W 081°03'0 0.0
2017-Apr-01 20:59N 32°01' W 081°03'0 0.0
2017-Apr-01 20:29N 32°01' W 081°03'0 0.0
2017-Apr-01 19:59N 32°01' W 081°03'0 0.0
2017-Apr-01 19:29N 32°01' W 081°03'0 0.0
2017-Apr-01 18:59N 32°01' W 081°03'0 0.0
2017-Apr-01 18:23N 32°01' W 081°03'0 0.0
2017-Apr-01 17:29N 32°01' W 081°03'0 0.0
2017-Apr-01 16:59N 32°01' W 081°03'0 0.0
2017-Apr-01 16:29N 32°01' W 081°03'0 0.0
2017-Apr-01 15:59N 32°01' W 081°03'0 0.0
2017-Apr-01 15:23N 32°01' W 081°03'0 0.0
2017-Apr-01 14:59N 32°01' W 081°03'0 0.0
2017-Apr-01 13:59N 32°01' W 081°03'0 0.0
2017-Apr-01 13:29N 32°01' W 081°03'0 0.0
2017-Apr-01 12:59N 32°01' W 081°03'0 0.0
2017-Apr-01 12:29N 32°01' W 081°03'0 0.0
2017-Apr-01 11:59N 32°01' W 081°03'0 0.0
2017-Apr-01 11:29N 32°01' W 081°03'0 0.0
2017-Apr-01 10:59N 32°01' W 081°03'0 0.0
2017-Apr-01 10:29N 32°01' W 081°03'0 0.0
2017-Apr-01 09:53N 32°01' W 081°03'0 0.0
2017-Apr-01 09:29N 32°01' W 081°03'0 0.0
2017-Apr-01 08:47N 32°01' W 081°03'0 0.0
2017-Apr-01 08:29N 32°01' W 081°03'0 0.0
2017-Apr-01 07:59N 32°01' W 081°03'0 0.0
2017-Apr-01 07:11N 32°01' W 081°03'0 0.0
2017-Apr-01 06:59N 32°01' W 081°03'0 0.0
2017-Apr-01 06:29N 32°01' W 081°03'0 0.0
2017-Apr-01 05:59N 32°01' W 081°03'0 0.0
2017-Apr-01 05:23N 32°01' W 081°03'0 0.0
2017-Apr-01 04:53N 32°01' W 081°03'0 0.0
2017-Apr-01 04:29N 32°01' W 081°03'0 0.0
2017-Apr-01 03:59N 32°01' W 081°03'0 0.0
2017-Apr-01 03:29N 32°01' W 081°03'0 0.0
2017-Apr-01 02:59N 32°01' W 081°03'0 0.0
2017-Apr-01 02:29N 32°01' W 081°03'0 0.0
2017-Apr-01 01:59N 32°01' W 081°03'0 0.0
2017-Apr-01 01:29N 32°01' W 081°03'0 0.0
2017-Apr-01 00:59N 32°01' W 081°03'0 0.0
2017-Apr-01 00:29N 32°01' W 081°03'0 0.0
2017-Mar-31 23:59N 32°01' W 081°03'0 0.0
2017-Mar-31 23:29N 32°01' W 081°03'0 0.0
2017-Mar-31 22:59N 32°01' W 081°03'0 0.0
2017-Mar-31 22:29N 32°01' W 081°03'0 0.0
2017-Mar-31 21:59N 32°01' W 081°03'0 0.0
2017-Mar-31 21:29N 32°01' W 081°03'0 0.0
2017-Mar-31 20:59N 32°01' W 081°03'0 0.0
2017-Mar-31 20:29N 32°01' W 081°03'0 0.0
2017-Mar-31 19:59N 32°01' W 081°03'0 0.0
2017-Mar-31 19:29N 32°01' W 081°03'0 0.0
2017-Mar-31 18:59N 32°01' W 081°03'0 0.0
2017-Mar-31 18:29N 32°01' W 081°03'0 0.0
2017-Mar-31 17:59N 32°01' W 081°03'0 0.0
2017-Mar-31 17:29N 32°01' W 081°03'0 0.0
2017-Mar-31 16:59N 32°01' W 081°03'0 0.0
2017-Mar-31 16:29N 32°01' W 081°03'0 0.0
2017-Mar-31 15:53N 32°01' W 081°03'0 0.0
2017-Mar-31 15:29N 32°01' W 081°03'0 0.0
2017-Mar-31 14:59N 32°01' W 081°03'0 0.0
2017-Mar-31 13:59N 32°01' W 081°03'0 0.0
2017-Mar-31 13:29N 32°01' W 081°03'0 0.0
2017-Mar-31 12:53N 32°01' W 081°03'0 0.0
2017-Mar-31 12:29N 32°01' W 081°03'0 0.0
2017-Mar-31 11:59N 32°01' W 081°03'0 0.0
2017-Mar-31 11:23N 32°01' W 081°03'0 0.0
2017-Mar-31 10:53N 32°01' W 081°03'0 0.0
2017-Mar-31 10:17N 32°01' W 081°03'0 0.0
2017-Mar-31 09:59N 32°01' W 081°03'0 0.0
2017-Mar-31 09:29N 32°01' W 081°03'0 0.0
2017-Mar-31 08:53N 32°01' W 081°03'0 0.0
2017-Mar-31 08:29N 32°01' W 081°03'0 0.0
2017-Mar-31 07:59N 32°01' W 081°03'0 0.0
2017-Mar-31 07:23N 32°01' W 081°03'0 0.0
2017-Mar-31 06:59N 32°01' W 081°03'0 0.0
2017-Mar-31 06:29N 32°01' W 081°03'0 0.0
2017-Mar-31 05:59N 32°01' W 081°03'0 0.0
2017-Mar-31 05:29N 32°01' W 081°03'0 0.0
2017-Mar-31 04:59N 32°01' W 081°03'0 0.0
2017-Mar-31 04:29N 32°01' W 081°03'0 0.0
2017-Mar-31 03:29N 32°01' W 081°03'0 0.0
2017-Mar-31 02:29N 32°01' W 081°03'0 0.0
2017-Mar-31 01:23N 32°01' W 081°03'0 0.0
2017-Mar-31 00:29N 32°01' W 081°03'0 0.0
2017-Mar-30 23:29N 32°01' W 081°03'0 0.0
2017-Mar-30 22:29N 32°01' W 081°03'0 0.0
2017-Mar-30 21:23N 32°01' W 081°03'0 0.0
2017-Mar-30 20:29N 32°01' W 081°03'0 0.0
2017-Mar-30 19:23N 32°01' W 081°03'0 0.0
2017-Mar-30 18:23N 32°01' W 081°03'0 0.0
2017-Mar-30 17:29N 32°01' W 081°03'0 0.0
2017-Mar-30 16:29N 32°01' W 081°03'0 0.0
2017-Mar-30 15:11N 32°01' W 081°03'0 0.0
2017-Mar-30 14:29N 32°01' W 081°03'0 0.0
2017-Mar-30 13:29N 32°01' W 081°03'0 0.0
2017-Mar-30 12:29N 32°01' W 081°03'0 0.0
2017-Mar-30 11:23N 32°01' W 081°03'0 0.0
2017-Mar-30 10:29N 32°01' W 081°03'0 0.0
2017-Mar-30 09:29N 32°01' W 081°03'0 0.0
2017-Mar-30 08:29N 32°01' W 081°03'0 0.0
2017-Mar-30 07:29N 32°01' W 081°03'0 0.0
2017-Mar-30 06:29N 32°01' W 081°03'0 0.0
2017-Mar-30 05:29N 32°01' W 081°03'0 0.0
2017-Mar-30 04:29N 32°01' W 081°03'0 0.0
2017-Mar-30 03:29N 32°01' W 081°03'0 0.0
2017-Mar-30 02:29N 32°01' W 081°03'0 0.0
2017-Mar-30 01:17N 32°01' W 081°03'0 0.0
2017-Mar-30 00:29N 32°01' W 081°03'0 0.0
2017-Mar-29 23:29N 32°01' W 081°03'0 0.0
2017-Mar-29 22:29N 32°01' W 081°03'0 0.0
2017-Mar-29 21:29N 32°01' W 081°03'0 0.0
2017-Mar-29 20:29N 32°01' W 081°03'0 0.0
2017-Mar-29 19:29N 32°01' W 081°03'0 0.0
2017-Mar-29 18:29N 32°01' W 081°03'0 0.0
2017-Mar-29 17:29N 32°01' W 081°03'0 0.0
2017-Mar-29 16:29N 32°01' W 081°03'0 0.0
2017-Mar-29 15:29N 32°01' W 081°03'0 0.0
2017-Mar-29 14:29N 32°01' W 081°03'  

Dump ship's entire track history